sensor_id;sensor_type;location;lat;lon;timestamp;P1;durP1;ratioP1;P2;durP2;ratioP2
17175;SDS011;8703;48.996;9.594;2022-09-02T00:00:52;5.00;;;4.50;;
17175;SDS011;8703;48.996;9.594;2022-09-02T00:03:25;4.53;;;4.10;;
17175;SDS011;8703;48.996;9.594;2022-09-02T00:05:53;5.73;;;4.23;;
17175;SDS011;8703;48.996;9.594;2022-09-02T00:08:21;5.93;;;4.47;;
17175;SDS011;8703;48.996;9.594;2022-09-02T00:10:48;4.70;;;4.23;;
17175;SDS011;8703;48.996;9.594;2022-09-02T00:13:17;4.33;;;3.93;;
17175;SDS011;8703;48.996;9.594;2022-09-02T00:15:46;5.67;;;4.50;;
17175;SDS011;8703;48.996;9.594;2022-09-02T00:18:14;5.30;;;4.27;;
17175;SDS011;8703;48.996;9.594;2022-09-02T00:20:43;4.43;;;4.03;;
17175;SDS011;8703;48.996;9.594;2022-09-02T00:23:11;5.23;;;4.50;;
17175;SDS011;8703;48.996;9.594;2022-09-02T00:25:39;4.83;;;4.20;;
17175;SDS011;8703;48.996;9.594;2022-09-02T00:28:08;4.90;;;4.40;;
17175;SDS011;8703;48.996;9.594;2022-09-02T00:30:38;6.33;;;4.37;;
17175;SDS011;8703;48.996;9.594;2022-09-02T00:33:06;5.13;;;4.30;;
17175;SDS011;8703;48.996;9.594;2022-09-02T00:35:34;6.30;;;4.57;;
17175;SDS011;8703;48.996;9.594;2022-09-02T00:38:02;5.30;;;4.70;;
17175;SDS011;8703;48.996;9.594;2022-09-02T00:40:30;6.13;;;4.40;;
17175;SDS011;8703;48.996;9.594;2022-09-02T00:42:59;5.33;;;4.10;;
17175;SDS011;8703;48.996;9.594;2022-09-02T00:45:26;4.97;;;3.80;;
17175;SDS011;8703;48.996;9.594;2022-09-02T00:47:55;4.67;;;4.10;;
17175;SDS011;8703;48.996;9.594;2022-09-02T00:50:23;5.57;;;4.33;;
17175;SDS011;8703;48.996;9.594;2022-09-02T00:52:55;4.70;;;4.23;;
17175;SDS011;8703;48.996;9.594;2022-09-02T00:55:26;4.50;;;3.83;;
17175;SDS011;8703;48.996;9.594;2022-09-02T00:57:56;5.50;;;4.23;;
17175;SDS011;8703;48.996;9.594;2022-09-02T01:00:25;4.90;;;4.40;;
17175;SDS011;8703;48.996;9.594;2022-09-02T01:02:57;5.47;;;4.27;;
17175;SDS011;8703;48.996;9.594;2022-09-02T01:05:26;5.50;;;4.20;;
17175;SDS011;8703;48.996;9.594;2022-09-02T01:07:55;5.53;;;4.57;;
17175;SDS011;8703;48.996;9.594;2022-09-02T01:10:24;6.00;;;4.10;;
17175;SDS011;8703;48.996;9.594;2022-09-02T01:12:54;4.33;;;3.93;;
17175;SDS011;8703;48.996;9.594;2022-09-02T01:15:23;6.30;;;4.57;;
17175;SDS011;8703;48.996;9.594;2022-09-02T01:17:51;7.17;;;4.80;;
17175;SDS011;8703;48.996;9.594;2022-09-02T01:20:22;4.63;;;4.13;;
17175;SDS011;8703;48.996;9.594;2022-09-02T01:22:52;5.13;;;4.43;;
17175;SDS011;8703;48.996;9.594;2022-09-02T01:25:23;4.30;;;3.90;;
17175;SDS011;8703;48.996;9.594;2022-09-02T01:27:52;5.60;;;4.20;;
17175;SDS011;8703;48.996;9.594;2022-09-02T01:30:21;5.73;;;4.23;;
17175;SDS011;8703;48.996;9.594;2022-09-02T01:32:50;6.00;;;4.40;;
17175;SDS011;8703;48.996;9.594;2022-09-02T01:35:17;6.17;;;4.40;;
17175;SDS011;8703;48.996;9.594;2022-09-02T01:37:45;5.60;;;4.37;;
17175;SDS011;8703;48.996;9.594;2022-09-02T01:40:15;5.13;;;4.37;;
17175;SDS011;8703;48.996;9.594;2022-09-02T01:42:43;5.47;;;4.33;;
17175;SDS011;8703;48.996;9.594;2022-09-02T01:45:11;4.80;;;4.30;;
17175;SDS011;8703;48.996;9.594;2022-09-02T01:47:39;5.20;;;4.70;;
17175;SDS011;8703;48.996;9.594;2022-09-02T01:50:07;5.77;;;4.60;;
17175;SDS011;8703;48.996;9.594;2022-09-02T01:52:35;4.70;;;4.00;;
17175;SDS011;8703;48.996;9.594;2022-09-02T01:55:03;6.07;;;4.47;;
17175;SDS011;8703;48.996;9.594;2022-09-02T01:57:32;5.73;;;3.93;;
17175;SDS011;8703;48.996;9.594;2022-09-02T01:59:59;5.87;;;4.53;;
17175;SDS011;8703;48.996;9.594;2022-09-02T02:02:28;6.00;;;4.47;;
17175;SDS011;8703;48.996;9.594;2022-09-02T02:04:55;5.50;;;4.40;;
17175;SDS011;8703;48.996;9.594;2022-09-02T02:07:22;7.00;;;4.53;;
17175;SDS011;8703;48.996;9.594;2022-09-02T02:09:50;5.80;;;4.10;;
17175;SDS011;8703;48.996;9.594;2022-09-02T02:12:18;5.00;;;4.10;;
17175;SDS011;8703;48.996;9.594;2022-09-02T02:14:46;4.70;;;4.17;;
17175;SDS011;8703;48.996;9.594;2022-09-02T02:17:14;5.57;;;4.30;;
17175;SDS011;8703;48.996;9.594;2022-09-02T02:19:41;4.60;;;4.20;;
17175;SDS011;8703;48.996;9.594;2022-09-02T02:22:09;4.87;;;4.17;;
17175;SDS011;8703;48.996;9.594;2022-09-02T02:24:38;4.20;;;3.80;;
17175;SDS011;8703;48.996;9.594;2022-09-02T02:27:05;4.33;;;3.93;;
17175;SDS011;8703;48.996;9.594;2022-09-02T02:29:32;4.63;;;4.13;;
17175;SDS011;8703;48.996;9.594;2022-09-02T02:32:01;5.43;;;4.27;;
17175;SDS011;8703;48.996;9.594;2022-09-02T02:34:31;4.77;;;3.83;;
17175;SDS011;8703;48.996;9.594;2022-09-02T02:36:59;5.57;;;4.17;;
17175;SDS011;8703;48.996;9.594;2022-09-02T02:39:26;4.73;;;4.00;;
17175;SDS011;8703;48.996;9.594;2022-09-02T02:41:53;4.77;;;3.80;;
17175;SDS011;8703;48.996;9.594;2022-09-02T02:44:21;4.77;;;4.00;;
17175;SDS011;8703;48.996;9.594;2022-09-02T02:46:49;6.60;;;3.80;;
17175;SDS011;8703;48.996;9.594;2022-09-02T02:49:17;5.30;;;4.23;;
17175;SDS011;8703;48.996;9.594;2022-09-02T02:51:45;4.77;;;4.33;;
17175;SDS011;8703;48.996;9.594;2022-09-02T02:54:13;5.37;;;4.20;;
17175;SDS011;8703;48.996;9.594;2022-09-02T02:56:40;6.10;;;4.10;;
17175;SDS011;8703;48.996;9.594;2022-09-02T02:59:08;5.30;;;4.57;;
17175;SDS011;8703;48.996;9.594;2022-09-02T03:01:35;10.80;;;4.43;;
17175;SDS011;8703;48.996;9.594;2022-09-02T03:04:02;5.57;;;3.93;;
17175;SDS011;8703;48.996;9.594;2022-09-02T03:06:31;4.67;;;4.27;;
17175;SDS011;8703;48.996;9.594;2022-09-02T03:08:59;4.93;;;3.80;;
17175;SDS011;8703;48.996;9.594;2022-09-02T03:11:27;5.43;;;4.10;;
17175;SDS011;8703;48.996;9.594;2022-09-02T03:13:55;4.73;;;4.23;;
17175;SDS011;8703;48.996;9.594;2022-09-02T03:16:23;4.27;;;3.83;;
17175;SDS011;8703;48.996;9.594;2022-09-02T03:18:50;4.70;;;3.97;;
17175;SDS011;8703;48.996;9.594;2022-09-02T03:21:18;4.07;;;3.53;;
17175;SDS011;8703;48.996;9.594;2022-09-02T03:23:47;5.50;;;4.00;;
17175;SDS011;8703;48.996;9.594;2022-09-02T03:26:15;5.37;;;4.20;;
17175;SDS011;8703;48.996;9.594;2022-09-02T03:28:43;4.37;;;3.83;;
17175;SDS011;8703;48.996;9.594;2022-09-02T03:31:13;4.93;;;3.63;;
17175;SDS011;8703;48.996;9.594;2022-09-02T03:33:42;4.00;;;3.47;;
17175;SDS011;8703;48.996;9.594;2022-09-02T03:36:17;5.07;;;4.03;;
17175;SDS011;8703;48.996;9.594;2022-09-02T03:38:47;4.17;;;3.67;;
17175;SDS011;8703;48.996;9.594;2022-09-02T03:41:15;5.87;;;3.77;;
17175;SDS011;8703;48.996;9.594;2022-09-02T03:43:42;4.20;;;3.70;;
17175;SDS011;8703;48.996;9.594;2022-09-02T03:46:09;4.77;;;3.77;;
17175;SDS011;8703;48.996;9.594;2022-09-02T03:48:37;4.10;;;3.70;;
17175;SDS011;8703;48.996;9.594;2022-09-02T03:51:05;3.70;;;3.40;;
17175;SDS011;8703;48.996;9.594;2022-09-02T03:53:32;3.70;;;3.40;;
17175;SDS011;8703;48.996;9.594;2022-09-02T03:56:04;4.17;;;3.30;;
17175;SDS011;8703;48.996;9.594;2022-09-02T03:58:33;3.47;;;3.17;;
17175;SDS011;8703;48.996;9.594;2022-09-02T04:01:01;4.30;;;3.37;;
17175;SDS011;8703;48.996;9.594;2022-09-02T04:03:29;8.37;;;3.80;;
17175;SDS011;8703;48.996;9.594;2022-09-02T04:05:57;4.50;;;3.60;;
17175;SDS011;8703;48.996;9.594;2022-09-02T04:08:24;5.47;;;3.70;;
17175;SDS011;8703;48.996;9.594;2022-09-02T04:10:52;5.37;;;3.67;;
17175;SDS011;8703;48.996;9.594;2022-09-02T04:13:21;7.03;;;3.73;;
17175;SDS011;8703;48.996;9.594;2022-09-02T04:15:49;4.47;;;4.00;;
17175;SDS011;8703;48.996;9.594;2022-09-02T04:18:16;4.83;;;3.90;;
17175;SDS011;8703;48.996;9.594;2022-09-02T04:20:43;4.27;;;3.60;;
17175;SDS011;8703;48.996;9.594;2022-09-02T04:23:11;6.17;;;4.20;;
17175;SDS011;8703;48.996;9.594;2022-09-02T04:25:39;7.37;;;3.60;;
17175;SDS011;8703;48.996;9.594;2022-09-02T04:28:07;6.33;;;4.10;;
17175;SDS011;8703;48.996;9.594;2022-09-02T04:30:38;5.60;;;3.83;;
17175;SDS011;8703;48.996;9.594;2022-09-02T04:33:06;6.73;;;4.20;;
17175;SDS011;8703;48.996;9.594;2022-09-02T04:35:34;4.00;;;3.60;;
17175;SDS011;8703;48.996;9.594;2022-09-02T04:38:04;6.40;;;3.40;;
17175;SDS011;8703;48.996;9.594;2022-09-02T04:40:31;6.40;;;3.50;;
17175;SDS011;8703;48.996;9.594;2022-09-02T04:42:59;3.90;;;3.50;;
17175;SDS011;8703;48.996;9.594;2022-09-02T04:45:26;5.73;;;3.73;;
17175;SDS011;8703;48.996;9.594;2022-09-02T04:47:55;4.10;;;3.60;;
17175;SDS011;8703;48.996;9.594;2022-09-02T04:50:22;4.90;;;3.87;;
17175;SDS011;8703;48.996;9.594;2022-09-02T04:52:50;5.37;;;3.73;;
17175;SDS011;8703;48.996;9.594;2022-09-02T04:55:17;4.73;;;3.67;;
17175;SDS011;8703;48.996;9.594;2022-09-02T04:57:45;4.67;;;3.73;;
17175;SDS011;8703;48.996;9.594;2022-09-02T05:00:12;6.10;;;3.37;;
17175;SDS011;8703;48.996;9.594;2022-09-02T05:02:40;4.77;;;4.00;;
17175;SDS011;8703;48.996;9.594;2022-09-02T05:05:09;4.40;;;3.60;;
17175;SDS011;8703;48.996;9.594;2022-09-02T05:07:37;4.23;;;3.60;;
17175;SDS011;8703;48.996;9.594;2022-09-02T05:10:05;8.07;;;4.10;;
17175;SDS011;8703;48.996;9.594;2022-09-02T05:12:33;6.60;;;3.53;;
17175;SDS011;8703;48.996;9.594;2022-09-02T05:15:01;4.97;;;4.13;;
17175;SDS011;8703;48.996;9.594;2022-09-02T05:17:29;7.10;;;4.40;;
17175;SDS011;8703;48.996;9.594;2022-09-02T05:19:57;5.50;;;4.20;;
17175;SDS011;8703;48.996;9.594;2022-09-02T05:22:26;4.67;;;4.20;;
17175;SDS011;8703;48.996;9.594;2022-09-02T05:24:53;5.13;;;4.00;;
17175;SDS011;8703;48.996;9.594;2022-09-02T05:27:21;5.77;;;4.10;;
17175;SDS011;8703;48.996;9.594;2022-09-02T05:29:52;5.33;;;4.10;;
17175;SDS011;8703;48.996;9.594;2022-09-02T05:32:20;7.20;;;3.87;;
17175;SDS011;8703;48.996;9.594;2022-09-02T05:34:48;4.43;;;4.00;;
17175;SDS011;8703;48.996;9.594;2022-09-02T05:37:15;4.93;;;3.60;;
17175;SDS011;8703;48.996;9.594;2022-09-02T05:39:44;5.57;;;4.27;;
17175;SDS011;8703;48.996;9.594;2022-09-02T05:42:12;5.00;;;4.30;;
17175;SDS011;8703;48.996;9.594;2022-09-02T05:44:40;4.43;;;3.87;;
17175;SDS011;8703;48.996;9.594;2022-09-02T05:47:09;4.20;;;3.80;;
17175;SDS011;8703;48.996;9.594;2022-09-02T05:49:36;4.10;;;3.70;;
17175;SDS011;8703;48.996;9.594;2022-09-02T05:52:04;6.73;;;4.37;;
17175;SDS011;8703;48.996;9.594;2022-09-02T05:54:35;4.83;;;3.90;;
17175;SDS011;8703;48.996;9.594;2022-09-02T05:57:05;8.40;;;4.40;;
17175;SDS011;8703;48.996;9.594;2022-09-02T05:59:34;4.40;;;4.00;;
17175;SDS011;8703;48.996;9.594;2022-09-02T06:02:04;6.63;;;4.20;;
17175;SDS011;8703;48.996;9.594;2022-09-02T06:04:31;4.70;;;4.20;;
17175;SDS011;8703;48.996;9.594;2022-09-02T06:07:03;5.13;;;4.47;;
17175;SDS011;8703;48.996;9.594;2022-09-02T06:09:30;4.60;;;4.00;;
17175;SDS011;8703;48.996;9.594;2022-09-02T06:11:58;6.97;;;4.60;;
17175;SDS011;8703;48.996;9.594;2022-09-02T06:14:27;4.77;;;4.17;;
17175;SDS011;8703;48.996;9.594;2022-09-02T06:16:55;5.77;;;3.80;;
17175;SDS011;8703;48.996;9.594;2022-09-02T06:19:24;4.87;;;4.00;;
17175;SDS011;8703;48.996;9.594;2022-09-02T06:21:53;10.37;;;5.57;;
17175;SDS011;8703;48.996;9.594;2022-09-02T06:24:21;12.27;;;5.73;;
17175;SDS011;8703;48.996;9.594;2022-09-02T06:26:49;9.87;;;4.93;;
17175;SDS011;8703;48.996;9.594;2022-09-02T06:29:17;7.87;;;4.40;;
17175;SDS011;8703;48.996;9.594;2022-09-02T06:31:47;5.47;;;4.30;;
17175;SDS011;8703;48.996;9.594;2022-09-02T06:34:15;5.77;;;4.30;;
17175;SDS011;8703;48.996;9.594;2022-09-02T06:36:45;4.67;;;4.10;;
17175;SDS011;8703;48.996;9.594;2022-09-02T06:39:14;5.63;;;3.20;;
17175;SDS011;8703;48.996;9.594;2022-09-02T06:41:42;3.43;;;2.80;;
17175;SDS011;8703;48.996;9.594;2022-09-02T06:44:12;4.07;;;3.03;;
17175;SDS011;8703;48.996;9.594;2022-09-02T06:46:41;3.50;;;2.90;;
17175;SDS011;8703;48.996;9.594;2022-09-02T06:49:11;4.30;;;2.30;;
17175;SDS011;8703;48.996;9.594;2022-09-02T06:51:42;3.57;;;3.00;;
17175;SDS011;8703;48.996;9.594;2022-09-02T06:54:11;4.00;;;2.60;;
17175;SDS011;8703;48.996;9.594;2022-09-02T06:56:40;3.70;;;2.77;;
17175;SDS011;8703;48.996;9.594;2022-09-02T06:59:08;2.60;;;2.37;;
17175;SDS011;8703;48.996;9.594;2022-09-02T07:01:36;3.00;;;2.70;;
17175;SDS011;8703;48.996;9.594;2022-09-02T07:04:03;3.00;;;2.70;;
17175;SDS011;8703;48.996;9.594;2022-09-02T07:06:50;4.03;;;3.00;;
17175;SDS011;8703;48.996;9.594;2022-09-02T07:09:19;3.27;;;2.70;;
17175;SDS011;8703;48.996;9.594;2022-09-02T07:11:48;3.00;;;2.50;;
17175;SDS011;8703;48.996;9.594;2022-09-02T07:14:16;3.40;;;2.63;;
17175;SDS011;8703;48.996;9.594;2022-09-02T07:16:45;5.10;;;2.70;;
17175;SDS011;8703;48.996;9.594;2022-09-02T07:19:14;2.60;;;2.40;;
17175;SDS011;8703;48.996;9.594;2022-09-02T07:21:41;4.07;;;2.83;;
17175;SDS011;8703;48.996;9.594;2022-09-02T07:24:11;4.63;;;2.47;;
17175;SDS011;8703;48.996;9.594;2022-09-02T07:26:39;2.73;;;2.53;;
17175;SDS011;8703;48.996;9.594;2022-09-02T07:29:07;2.43;;;2.23;;
17175;SDS011;8703;48.996;9.594;2022-09-02T07:31:35;4.23;;;2.60;;
17175;SDS011;8703;48.996;9.594;2022-09-02T07:34:04;4.40;;;2.30;;
17175;SDS011;8703;48.996;9.594;2022-09-02T07:36:34;3.90;;;2.10;;
17175;SDS011;8703;48.996;9.594;2022-09-02T07:39:03;3.50;;;2.30;;
17175;SDS011;8703;48.996;9.594;2022-09-02T07:41:33;2.53;;;1.93;;
17175;SDS011;8703;48.996;9.594;2022-09-02T07:44:01;3.13;;;2.40;;
17175;SDS011;8703;48.996;9.594;2022-09-02T07:46:29;3.57;;;2.20;;
17175;SDS011;8703;48.996;9.594;2022-09-02T07:48:56;3.27;;;2.30;;
17175;SDS011;8703;48.996;9.594;2022-09-02T07:51:24;2.93;;;2.30;;
17175;SDS011;8703;48.996;9.594;2022-09-02T07:53:52;2.77;;;2.30;;
17175;SDS011;8703;48.996;9.594;2022-09-02T07:56:19;3.80;;;1.97;;
17175;SDS011;8703;48.996;9.594;2022-09-02T07:58:48;3.83;;;2.27;;
17175;SDS011;8703;48.996;9.594;2022-09-02T08:01:17;3.03;;;1.80;;
17175;SDS011;8703;48.996;9.594;2022-09-02T08:03:46;3.20;;;1.97;;
17175;SDS011;8703;48.996;9.594;2022-09-02T08:06:14;3.13;;;2.00;;
17175;SDS011;8703;48.996;9.594;2022-09-02T08:08:41;3.37;;;2.20;;
17175;SDS011;8703;48.996;9.594;2022-09-02T08:11:09;4.43;;;1.80;;
17175;SDS011;8703;48.996;9.594;2022-09-02T08:13:36;3.70;;;2.00;;
17175;SDS011;8703;48.996;9.594;2022-09-02T08:16:05;2.40;;;1.93;;
17175;SDS011;8703;48.996;9.594;2022-09-02T08:18:33;3.03;;;1.90;;
17175;SDS011;8703;48.996;9.594;2022-09-02T08:21:01;4.33;;;2.10;;
17175;SDS011;8703;48.996;9.594;2022-09-02T08:23:28;2.60;;;1.67;;
17175;SDS011;8703;48.996;9.594;2022-09-02T08:25:57;2.70;;;1.90;;
17175;SDS011;8703;48.996;9.594;2022-09-02T08:28:24;4.33;;;1.70;;
17175;SDS011;8703;48.996;9.594;2022-09-02T08:30:52;3.50;;;1.85;;
17175;SDS011;8703;48.996;9.594;2022-09-02T08:33:24;3.67;;;1.60;;
17175;SDS011;8703;48.996;9.594;2022-09-02T08:35:52;3.50;;;1.70;;
17175;SDS011;8703;48.996;9.594;2022-09-02T08:38:20;2.58;;;1.60;;
17175;SDS011;8703;48.996;9.594;2022-09-02T08:40:47;4.00;;;1.60;;
17175;SDS011;8703;48.996;9.594;2022-09-02T08:43:20;2.58;;;1.55;;
17175;SDS011;8703;48.996;9.594;2022-09-02T08:45:55;4.13;;;1.67;;
17175;SDS011;8703;48.996;9.594;2022-09-02T08:48:29;2.70;;;1.60;;
17175;SDS011;8703;48.996;9.594;2022-09-02T08:51:02;3.58;;;1.50;;
17175;SDS011;8703;48.996;9.594;2022-09-02T08:53:33;2.58;;;1.40;;
17175;SDS011;8703;48.996;9.594;2022-09-02T08:56:02;1.45;;;1.20;;
17175;SDS011;8703;48.996;9.594;2022-09-02T08:58:32;2.20;;;1.63;;
17175;SDS011;8703;48.996;9.594;2022-09-02T09:01:05;1.52;;;1.42;;
17175;SDS011;8703;48.996;9.594;2022-09-02T09:03:37;2.70;;;1.40;;
17175;SDS011;8703;48.996;9.594;2022-09-02T09:06:18;3.15;;;1.13;;
17175;SDS011;8703;48.996;9.594;2022-09-02T09:08:52;2.95;;;1.50;;
17175;SDS011;8703;48.996;9.594;2022-09-02T09:11:25;2.25;;;1.30;;
17175;SDS011;8703;48.996;9.594;2022-09-02T09:14:00;1.88;;;1.40;;
17175;SDS011;8703;48.996;9.594;2022-09-02T09:16:34;2.42;;;1.33;;
17175;SDS011;8703;48.996;9.594;2022-09-02T09:19:07;2.67;;;1.30;;
17175;SDS011;8703;48.996;9.594;2022-09-02T09:21:39;1.88;;;1.15;;
17175;SDS011;8703;48.996;9.594;2022-09-02T09:24:13;1.58;;;1.20;;
17175;SDS011;8703;48.996;9.594;2022-09-02T09:26:47;2.67;;;1.23;;
17175;SDS011;8703;48.996;9.594;2022-09-02T09:29:14;1.50;;;1.27;;
17175;SDS011;8703;48.996;9.594;2022-09-02T09:31:42;2.20;;;1.00;;
17175;SDS011;8703;48.996;9.594;2022-09-02T09:34:11;2.30;;;1.00;;
17175;SDS011;8703;48.996;9.594;2022-09-02T09:36:49;2.35;;;1.20;;
17175;SDS011;8703;48.996;9.594;2022-09-02T09:39:24;1.38;;;1.10;;
17175;SDS011;8703;48.996;9.594;2022-09-02T09:41:54;1.42;;;1.02;;
17175;SDS011;8703;48.996;9.594;2022-09-02T09:44:27;5.03;;;1.30;;
17175;SDS011;8703;48.996;9.594;2022-09-02T09:47:04;1.30;;;1.08;;
17175;SDS011;8703;48.996;9.594;2022-09-02T09:49:34;3.20;;;1.33;;
17175;SDS011;8703;48.996;9.594;2022-09-02T09:52:02;2.50;;;0.95;;
17175;SDS011;8703;48.996;9.594;2022-09-02T09:54:29;2.38;;;1.02;;
17175;SDS011;8703;48.996;9.594;2022-09-02T09:57:11;2.08;;;1.02;;
17175;SDS011;8703;48.996;9.594;2022-09-02T09:59:42;1.95;;;1.00;;
17175;SDS011;8703;48.996;9.594;2022-09-02T10:02:18;2.35;;;1.15;;
17175;SDS011;8703;48.996;9.594;2022-09-02T10:04:47;1.58;;;1.00;;
17175;SDS011;8703;48.996;9.594;2022-09-02T10:07:22;2.17;;;0.98;;
17175;SDS011;8703;48.996;9.594;2022-09-02T10:10:07;1.20;;;0.93;;
17175;SDS011;8703;48.996;9.594;2022-09-02T10:12:41;1.25;;;1.05;;
17175;SDS011;8703;48.996;9.594;2022-09-02T10:15:09;1.77;;;0.98;;
17175;SDS011;8703;48.996;9.594;2022-09-02T10:17:38;1.50;;;0.90;;
17175;SDS011;8703;48.996;9.594;2022-09-02T10:20:13;1.48;;;0.90;;
17175;SDS011;8703;48.996;9.594;2022-09-02T10:22:50;1.83;;;0.70;;
17175;SDS011;8703;48.996;9.594;2022-09-02T10:25:49;1.35;;;1.00;;
17175;SDS011;8703;48.996;9.594;2022-09-02T10:28:35;2.03;;;1.00;;
17175;SDS011;8703;48.996;9.594;2022-09-02T10:31:10;1.25;;;0.80;;
17175;SDS011;8703;48.996;9.594;2022-09-02T10:33:45;1.83;;;0.77;;
17175;SDS011;8703;48.996;9.594;2022-09-02T10:36:26;2.03;;;0.90;;
17175;SDS011;8703;48.996;9.594;2022-09-02T10:38:58;3.78;;;1.10;;
17175;SDS011;8703;48.996;9.594;2022-09-02T10:41:38;1.80;;;0.90;;
17175;SDS011;8703;48.996;9.594;2022-09-02T10:44:21;0.95;;;0.82;;
17175;SDS011;8703;48.996;9.594;2022-09-02T10:46:58;1.33;;;0.90;;
17175;SDS011;8703;48.996;9.594;2022-09-02T10:49:34;3.13;;;0.90;;
17175;SDS011;8703;48.996;9.594;2022-09-02T10:52:11;1.45;;;0.85;;
17175;SDS011;8703;48.996;9.594;2022-09-02T10:54:52;1.20;;;0.93;;
17175;SDS011;8703;48.996;9.594;2022-09-02T10:57:27;1.20;;;0.90;;
17175;SDS011;8703;48.996;9.594;2022-09-02T10:59:56;2.20;;;0.80;;
17175;SDS011;8703;48.996;9.594;2022-09-02T11:02:36;4.00;;;1.00;;
17175;SDS011;8703;48.996;9.594;2022-09-02T11:05:06;1.42;;;0.80;;
17175;SDS011;8703;48.996;9.594;2022-09-02T11:07:40;2.47;;;0.80;;
17175;SDS011;8703;48.996;9.594;2022-09-02T11:10:10;2.53;;;0.90;;
17175;SDS011;8703;48.996;9.594;2022-09-02T11:12:44;2.88;;;0.85;;
17175;SDS011;8703;48.996;9.594;2022-09-02T11:15:14;2.30;;;0.98;;
17175;SDS011;8703;48.996;9.594;2022-09-02T11:17:46;2.40;;;1.00;;
17175;SDS011;8703;48.996;9.594;2022-09-02T11:20:17;2.40;;;1.00;;
17175;SDS011;8703;48.996;9.594;2022-09-02T11:22:54;1.48;;;0.80;;
17175;SDS011;8703;48.996;9.594;2022-09-02T11:25:24;1.00;;;0.80;;
17175;SDS011;8703;48.996;9.594;2022-09-02T11:27:58;1.30;;;1.00;;
17175;SDS011;8703;48.996;9.594;2022-09-02T11:30:34;1.30;;;0.80;;
17175;SDS011;8703;48.996;9.594;2022-09-02T11:33:09;1.25;;;1.00;;
17175;SDS011;8703;48.996;9.594;2022-09-02T11:35:41;5.25;;;1.00;;
17175;SDS011;8703;48.996;9.594;2022-09-02T11:38:15;1.55;;;0.80;;
17175;SDS011;8703;48.996;9.594;2022-09-02T11:41:09;1.52;;;1.00;;
17175;SDS011;8703;48.996;9.594;2022-09-02T11:43:48;1.58;;;0.80;;
17175;SDS011;8703;48.996;9.594;2022-09-02T11:46:25;2.30;;;0.88;;
17175;SDS011;8703;48.996;9.594;2022-09-02T11:49:25;1.63;;;1.15;;
17175;SDS011;8703;48.996;9.594;2022-09-02T11:52:05;2.22;;;0.98;;
17175;SDS011;8703;48.996;9.594;2022-09-02T11:54:44;1.55;;;0.80;;
17175;SDS011;8703;48.996;9.594;2022-09-02T11:57:14;1.77;;;0.85;;
17175;SDS011;8703;48.996;9.594;2022-09-02T12:00:04;1.15;;;0.80;;
17175;SDS011;8703;48.996;9.594;2022-09-02T12:02:36;2.28;;;0.90;;
17175;SDS011;8703;48.996;9.594;2022-09-02T12:08:12;1.55;;;0.90;;
17175;SDS011;8703;48.996;9.594;2022-09-02T12:11:02;1.77;;;0.73;;
17175;SDS011;8703;48.996;9.594;2022-09-02T12:13:32;2.75;;;0.90;;
17175;SDS011;8703;48.996;9.594;2022-09-02T12:19:25;1.45;;;1.00;;
17175;SDS011;8703;48.996;9.594;2022-09-02T12:25:03;2.35;;;1.05;;
17175;SDS011;8703;48.996;9.594;2022-09-02T12:27:42;5.00;;;1.00;;
17175;SDS011;8703;48.996;9.594;2022-09-02T12:30:10;1.98;;;0.90;;
17175;SDS011;8703;48.996;9.594;2022-09-02T12:35:52;2.30;;;0.90;;
17175;SDS011;8703;48.996;9.594;2022-09-02T12:38:25;1.55;;;0.70;;
17175;SDS011;8703;48.996;9.594;2022-09-02T12:41:05;2.17;;;0.90;;
17175;SDS011;8703;48.996;9.594;2022-09-02T12:43:45;1.45;;;0.90;;
17175;SDS011;8703;48.996;9.594;2022-09-02T12:46:24;0.98;;;0.70;;
17175;SDS011;8703;48.996;9.594;2022-09-02T12:48:57;12.50;;;1.58;;
17175;SDS011;8703;48.996;9.594;2022-09-02T12:54:21;2.63;;;1.05;;
17175;SDS011;8703;48.996;9.594;2022-09-02T12:56:52;1.98;;;0.85;;
17175;SDS011;8703;48.996;9.594;2022-09-02T12:59:24;2.55;;;0.82;;
17175;SDS011;8703;48.996;9.594;2022-09-02T13:01:58;1.90;;;0.88;;
17175;SDS011;8703;48.996;9.594;2022-09-02T13:04:31;2.95;;;0.70;;
17175;SDS011;8703;48.996;9.594;2022-09-02T13:07:10;1.27;;;0.70;;
17175;SDS011;8703;48.996;9.594;2022-09-02T13:10:14;0.82;;;0.82;;
17175;SDS011;8703;48.996;9.594;2022-09-02T13:15:51;1.33;;;0.90;;
17175;SDS011;8703;48.996;9.594;2022-09-02T13:25:04;1.15;;;0.70;;
17175;SDS011;8703;48.996;9.594;2022-09-02T13:27:49;1.10;;;0.70;;
17175;SDS011;8703;48.996;9.594;2022-09-02T13:30:25;0.80;;;0.80;;
17175;SDS011;8703;48.996;9.594;2022-09-02T13:33:04;1.90;;;0.80;;
17175;SDS011;8703;48.996;9.594;2022-09-02T13:35:34;1.35;;;0.90;;
17175;SDS011;8703;48.996;9.594;2022-09-02T13:38:03;1.08;;;0.90;;
17175;SDS011;8703;48.996;9.594;2022-09-02T13:40:31;1.05;;;0.80;;
17175;SDS011;8703;48.996;9.594;2022-09-02T13:43:00;1.50;;;0.90;;
17175;SDS011;8703;48.996;9.594;2022-09-02T13:45:29;4.40;;;0.90;;
17175;SDS011;8703;48.996;9.594;2022-09-02T13:48:00;1.77;;;0.90;;
17175;SDS011;8703;48.996;9.594;2022-09-02T13:50:32;1.27;;;0.85;;
17175;SDS011;8703;48.996;9.594;2022-09-02T13:53:00;1.23;;;0.88;;
17175;SDS011;8703;48.996;9.594;2022-09-02T13:55:30;1.55;;;0.98;;
17175;SDS011;8703;48.996;9.594;2022-09-02T13:57:59;2.25;;;0.88;;
17175;SDS011;8703;48.996;9.594;2022-09-02T14:00:31;1.08;;;0.82;;
17175;SDS011;8703;48.996;9.594;2022-09-02T14:03:01;1.35;;;0.70;;
17175;SDS011;8703;48.996;9.594;2022-09-02T14:05:32;1.45;;;0.95;;
17175;SDS011;8703;48.996;9.594;2022-09-02T14:08:01;1.98;;;0.85;;
17175;SDS011;8703;48.996;9.594;2022-09-02T14:10:31;1.73;;;0.80;;
17175;SDS011;8703;48.996;9.594;2022-09-02T14:13:02;1.45;;;0.82;;
17175;SDS011;8703;48.996;9.594;2022-09-02T14:15:32;0.82;;;0.80;;
17175;SDS011;8703;48.996;9.594;2022-09-02T14:18:06;1.48;;;0.73;;
17175;SDS011;8703;48.996;9.594;2022-09-02T14:20:36;1.83;;;0.85;;
17175;SDS011;8703;48.996;9.594;2022-09-02T14:23:05;2.03;;;0.95;;
17175;SDS011;8703;48.996;9.594;2022-09-02T14:25:34;2.30;;;0.90;;
17175;SDS011;8703;48.996;9.594;2022-09-02T14:28:03;1.63;;;0.85;;
17175;SDS011;8703;48.996;9.594;2022-09-02T14:30:35;2.60;;;0.90;;
17175;SDS011;8703;48.996;9.594;2022-09-02T14:33:17;1.20;;;0.77;;
17175;SDS011;8703;48.996;9.594;2022-09-02T14:36:00;1.05;;;0.93;;
17175;SDS011;8703;48.996;9.594;2022-09-02T14:38:29;1.48;;;0.80;;
17175;SDS011;8703;48.996;9.594;2022-09-02T14:40:59;3.10;;;1.00;;
17175;SDS011;8703;48.996;9.594;2022-09-02T14:43:28;1.95;;;0.85;;
17175;SDS011;8703;48.996;9.594;2022-09-02T14:46:06;1.27;;;1.00;;
17175;SDS011;8703;48.996;9.594;2022-09-02T14:48:35;1.55;;;0.90;;
17175;SDS011;8703;48.996;9.594;2022-09-02T14:51:05;2.45;;;1.00;;
17175;SDS011;8703;48.996;9.594;2022-09-02T14:53:34;0.90;;;0.80;;
17175;SDS011;8703;48.996;9.594;2022-09-02T14:56:02;2.13;;;1.00;;
17175;SDS011;8703;48.996;9.594;2022-09-02T14:58:31;1.00;;;0.80;;
17175;SDS011;8703;48.996;9.594;2022-09-02T15:00:58;1.23;;;1.00;;
17175;SDS011;8703;48.996;9.594;2022-09-02T15:03:27;1.27;;;0.82;;
17175;SDS011;8703;48.996;9.594;2022-09-02T15:05:55;1.48;;;0.85;;
17175;SDS011;8703;48.996;9.594;2022-09-02T15:08:24;1.10;;;0.80;;
17175;SDS011;8703;48.996;9.594;2022-09-02T15:10:52;2.53;;;0.82;;
17175;SDS011;8703;48.996;9.594;2022-09-02T15:13:22;3.90;;;1.00;;
17175;SDS011;8703;48.996;9.594;2022-09-02T15:15:51;2.47;;;0.95;;
17175;SDS011;8703;48.996;9.594;2022-09-02T15:18:20;2.17;;;0.93;;
17175;SDS011;8703;48.996;9.594;2022-09-02T15:20:48;1.80;;;0.88;;
17175;SDS011;8703;48.996;9.594;2022-09-02T15:23:15;2.88;;;0.98;;
17175;SDS011;8703;48.996;9.594;2022-09-02T15:25:44;1.33;;;1.08;;
17175;SDS011;8703;48.996;9.594;2022-09-02T15:28:12;2.13;;;0.90;;
17175;SDS011;8703;48.996;9.594;2022-09-02T15:30:39;1.00;;;0.90;;
17175;SDS011;8703;48.996;9.594;2022-09-02T15:33:07;1.75;;;1.00;;
17175;SDS011;8703;48.996;9.594;2022-09-02T15:35:35;3.08;;;0.80;;
17175;SDS011;8703;48.996;9.594;2022-09-02T15:38:02;1.92;;;0.93;;
17175;SDS011;8703;48.996;9.594;2022-09-02T15:40:30;1.40;;;0.82;;
17175;SDS011;8703;48.996;9.594;2022-09-02T15:42:59;1.65;;;0.88;;
17175;SDS011;8703;48.996;9.594;2022-09-02T15:45:26;2.13;;;0.90;;